Harrison, TN (37341)

8:43 AM EDT on August 05, 2015 (GMT -0400)
Island Point | | Change Station
CLOSE
Current Station
Personal Weather Station
Location: Harrison, TN
Elevation: 700 ft
Nearby Weather Stations

Elev 700 ft 35.16 °N, 85.07 °W | Updated 22 seconds ago

Partly Cloudy
Partly Cloudy
75.1 °F
Feels Like 74 °F
N
0.0
Wind Variable Wind from ENE
Gusts 0.0 mph

Today
High -- | Low -- °F
--% Chance of Precip.
Yesterday
High -- | Low -- °F
Precip. -- in
6:52 AM 8:39 PM
Waning Gibbous, 67% visible
Pressure 30.01 in
Visibility 10.0 miles
Clouds Mostly Cloudy 15000 ft
Mostly Cloudy 18000 ft
Mostly Cloudy 25000 ft
Heat Index 74 °F
Dew Point 73 °F
Humidity 94%
Rainfall 0.00 in
Snow Depth Not available.
UV 0 out of 12
Pollen 4.50 out of 12
Air Quality Not available.
Flu Activity Not available.
METAR KCHA 051153Z 01006KT 10SM BKN150 BKN180 BKN250 25/22 A3003 RMK AO2 SLP161 T02500217 10267 20244 53004

More Conditions Fewer Conditions

Pressure 30.01 in
Visibility 10.0 miles
Clouds Mostly Cloudy 15000 ft
Mostly Cloudy 18000 ft
Mostly Cloudy 25000 ft
Heat Index 74 °F
Dew Point 73 °F
Humidity 94%
Rainfall 0.00 in
Snow Depth Not available.
UV 0 out of 12
Pollen 4.50 out of 12
Air Quality Not available.
Flu Activity Not available.
METAR KCHA 051153Z 01006KT 10SM BKN150 BKN180 BKN250 25/22 A3003 RMK AO2 SLP161 T02500217 10267 20244 53004

More Conditions Fewer Conditions

10-Day Weather Forecast

×

Almanac

Astronomy

Aug. 05, 2015 Rise Set
Actual Time
Civil Twilight
Nautical Twilight
Astronomical Twilight
Moon
Length of Visible Light
Length of Day
Tomorrow will be .
, % of the Moon is Illuminated

Today's Extremes

State Highs State Lows

Community

WunderPhotos

Upload Photos

1,844,175 photos uploaded!

WunderBlogs® & News

Nearby

Air Quality

  Air Quality AQ Index Pollutant
Not available.

Snow Depth

Station Depth Elevation

Earthquake Activity

City Distance Mag. Time & Date
Minimum magnitude displayed is 2.5.

Coastal Water Temperatures

Place Temperature

Stations

Nearby Weather Stations

Station Location Temp. Windchill Dew Point Humidity Wind Precip. Elev Updated Type